North Liberty, IN

10:32 PM EDT on May 28, 2015 (GMT -0400)
New Rd Wind Generator | | Change Station
CLOSE
Current Station
Personal Weather Station
Location: North Liberty, IN
Elevation: 735 ft
Nearby Weather Stations

Elev 735 ft 41.56 °N, 86.43 °W | Updated 4 minutes ago

Partly Cloudy
Partly Cloudy
71.1 °F
Feels Like 71 °F
N
0.0
Wind Variable Wind from ESE

Today
High -- | Low -- °F
--% Chance of Precip.
Yesterday
High -- | Low -- °F
Precip. -- in
6:16 AM 9:09 PM
Waxing Gibbous, 80% visible
Pressure 30.12 in
Visibility 10.0 miles
Clouds Clear
Heat Index 71 °F
Dew Point 65 °F
Humidity 81%
Rainfall 0.00 in
Snow Depth Not available.
UV 0 out of 12
Pollen 9.50 out of 12
Air Quality Not available.
Flu Activity Sporadic
METAR KSBN 290154Z 10006KT 10SM CLR 23/13 A3013 RMK AO2 SLP198 T02330133

More Conditions Fewer Conditions

Pressure 30.12 in
Visibility 10.0 miles
Clouds Clear
Heat Index 71 °F
Dew Point 65 °F
Humidity 81%
Rainfall 0.00 in
Snow Depth Not available.
UV 0 out of 12
Pollen 9.50 out of 12
Air Quality Not available.
Flu Activity Sporadic
METAR KSBN 290154Z 10006KT 10SM CLR 23/13 A3013 RMK AO2 SLP198 T02330133

More Conditions Fewer Conditions

10-Day Weather Forecast

Almanac

Astronomy

May. 28, 2015 Rise Set
Actual Time
Civil Twilight
Nautical Twilight
Astronomical Twilight
Moon
Length of Visible Light
Length of Day
Tomorrow will be .
, % of the Moon is Illuminated

Today's Extremes

State Highs State Lows

Community

WunderPhotos

Upload Photos

1,825,144 photos uploaded!

WunderBlogs® & News

Nearby

Air Quality

  Air Quality AQ Index Pollutant
Not available.

Snow Depth

Station Depth Elevation

Earthquake Activity

City Distance Mag. Time & Date
Minimum magnitude displayed is 2.5.

Coastal Water Temperatures

Place Temperature

Stations

Nearby Weather Stations

Station Location Temp. Windchill Dew Point Humidity Wind Precip. Elev Updated Type